Time;durP1;ratioP1;P1;durP2;ratioP2;P2;SDS_P1;SDS_P2;PMS_P1;PMS_P2;Temp;Humidity;BMP_temperature;BMP_pressure;BME280_temperature;BME280_humidity;BME280_pressure;Samples;Min_cycle;Max_cycle;Signal;HPM_P1;HPM_P2
2021/10/08 00:01:49;;;;;;;13.02;11.52;;;9.30;99.90;;;;;;4934717;29;20385;-81
2021/10/08 00:04:15;;;;;;;10.57;9.48;;;9.30;99.90;;;;;;4934685;29;20016;-81
2021/10/08 00:06:41;;;;;;;13.10;11.45;;;9.30;99.90;;;;;;4933941;29;20369;-80
2021/10/08 00:09:06;;;;;;;12.85;10.98;;;9.20;99.90;;;;;;4934365;29;20024;-79
2021/10/08 00:11:32;;;;;;;12.63;10.50;;;9.20;99.90;;;;;;4934509;29;20024;-80
2021/10/08 00:13:57;;;;;;;13.18;11.25;;;9.20;99.90;;;;;;4935159;29;20039;-80
2021/10/08 00:16:23;;;;;;;12.02;10.65;;;9.20;99.90;;;;;;4934556;29;20028;-79
2021/10/08 00:18:49;;;;;;;11.63;9.93;;;9.10;99.90;;;;;;4933593;29;20473;-79
2021/10/08 00:21:15;;;;;;;12.13;10.38;;;9.10;99.90;;;;;;4934772;29;20127;-81
2021/10/08 00:23:41;;;;;;;11.85;10.65;;;9.10;99.90;;;;;;4934339;29;20495;-81
2021/10/08 00:26:07;;;;;;;12.77;10.73;;;9.00;99.90;;;;;;4933699;29;20028;-80
2021/10/08 00:28:32;;;;;;;13.68;10.77;;;9.00;99.90;;;;;;4934044;29;20031;-80
2021/10/08 00:30:59;;;;;;;12.25;10.95;;;9.00;99.90;;;;;;4934485;29;20020;-81
2021/10/08 00:33:25;;;;;;;12.48;10.82;;;9.00;99.90;;;;;;4933027;29;20130;-81
2021/10/08 00:35:50;;;;;;;11.15;9.95;;;9.00;99.90;;;;;;4935568;29;20075;-82
2021/10/08 00:38:16;;;;;;;10.95;9.85;;;9.00;99.90;;;;;;4934270;29;20020;-81
2021/10/08 00:40:45;;;;;;;12.00;10.50;;;9.00;99.90;;;;;;4934590;29;20600;-82
2021/10/08 00:43:11;;;;;;;12.27;11.00;;;8.90;99.90;;;;;;4934323;29;20465;-82
2021/10/08 00:45:37;;;;;;;12.43;11.10;;;8.90;99.90;;;;;;4933892;29;20029;-82
2021/10/08 00:48:06;;;;;;;11.68;9.85;;;8.90;99.90;;;;;;4933371;29;20051;-81
2021/10/08 00:50:41;;;;;;;10.70;9.32;;;8.90;99.90;;;;;;4933799;29;20053;-82
2021/10/08 00:53:07;;;;;;;10.98;9.38;;;8.90;99.90;;;;;;4935365;29;20416;-81
2021/10/08 00:55:42;;;;;;;10.65;9.55;;;8.80;99.90;;;;;;4933357;29;20028;-81
2021/10/08 00:58:09;;;;;;;10.88;9.75;;;8.80;99.90;;;;;;4933962;29;20047;-81
2021/10/08 01:00:34;;;;;;;11.43;10.23;;;8.80;99.90;;;;;;4935615;29;20040;-81
2021/10/08 01:03:01;;;;;;;12.40;10.73;;;8.80;99.90;;;;;;4933390;29;20019;-81
2021/10/08 01:05:27;;;;;;;12.57;10.68;;;8.80;99.90;;;;;;4936377;29;20042;-82
2021/10/08 01:07:52;;;;;;;12.90;11.45;;;8.70;99.90;;;;;;4937410;29;20031;-81
2021/10/08 01:10:18;;;;;;;12.55;11.18;;;8.70;99.90;;;;;;4938183;29;20062;-78
2021/10/08 01:12:44;;;;;;;14.50;11.90;;;8.70;99.90;;;;;;4937254;29;20043;-80
2021/10/08 01:15:10;;;;;;;12.43;11.13;;;8.70;99.90;;;;;;4937129;29;20027;-78
2021/10/08 01:17:36;;;;;;;11.85;10.65;;;8.70;99.90;;;;;;4937176;29;20077;-79
2021/10/08 01:20:06;;;;;;;13.27;11.00;;;8.60;99.90;;;;;;4938024;29;20488;-79
2021/10/08 01:22:31;;;;;;;12.60;11.30;;;8.60;99.90;;;;;;4936906;29;20071;-81
2021/10/08 01:24:57;;;;;;;14.30;10.73;;;8.60;99.90;;;;;;4938072;29;20412;-82
2021/10/08 01:27:22;;;;;;;15.07;10.93;;;8.60;99.90;;;;;;4937789;29;20449;-82
2021/10/08 01:29:52;;;;;;;13.57;11.48;;;8.50;99.90;;;;;;4936580;29;20377;-80
2021/10/08 01:32:18;;;;;;;13.77;10.80;;;8.50;99.90;;;;;;4937361;29;20059;-80
2021/10/08 01:34:43;;;;;;;12.88;11.57;;;8.50;99.90;;;;;;4937367;29;20032;-83
2021/10/08 01:37:09;;;;;;;12.15;10.68;;;8.50;99.90;;;;;;4937066;29;20392;-82
2021/10/08 01:39:35;;;;;;;13.05;11.02;;;8.50;99.90;;;;;;4937300;29;20114;-82
2021/10/08 01:42:00;;;;;;;13.55;12.07;;;8.50;99.90;;;;;;4937533;29;20031;-82
2021/10/08 01:44:26;;;;;;;11.68;10.45;;;8.40;99.90;;;;;;4934084;29;20437;-83
2021/10/08 01:46:51;;;;;;;12.90;11.00;;;8.40;99.90;;;;;;4919411;29;20024;-83
2021/10/08 01:49:17;;;;;;;12.18;10.70;;;8.40;99.90;;;;;;4925324;29;20114;-83
2021/10/08 01:51:42;;;;;;;13.88;11.73;;;8.40;99.90;;;;;;4935974;29;20028;-83
2021/10/08 01:54:09;;;;;;;14.23;11.20;;;8.30;99.90;;;;;;4935692;29;20039;-83
2021/10/08 01:56:35;;;;;;;12.75;10.63;;;8.30;99.90;;;;;;4936790;29;20035;-81
2021/10/08 01:59:02;;;;;;;13.27;11.32;;;8.30;99.90;;;;;;4936434;29;20024;-81
2021/10/08 02:01:28;;;;;;;12.25;10.95;;;8.30;99.90;;;;;;4936994;29;20019;-81
2021/10/08 02:03:53;;;;;;;14.18;11.32;;;8.30;99.90;;;;;;4936918;29;20031;-84
2021/10/08 02:06:19;;;;;;;13.13;11.73;;;8.30;99.90;;;;;;4936581;29;20090;-80
2021/10/08 02:08:44;;;;;;;12.77;11.18;;;8.20;99.90;;;;;;4936739;29;20119;-82
2021/10/08 02:11:10;;;;;;;13.57;11.85;;;8.20;99.90;;;;;;4936616;29;20012;-81
2021/10/08 02:13:35;;;;;;;13.35;11.23;;;8.20;99.90;;;;;;4936737;29;20058;-83
2021/10/08 02:16:02;;;;;;;14.70;11.43;;;8.20;99.90;;;;;;4936608;29;20047;-83
2021/10/08 02:18:29;;;;;;;16.50;11.93;;;8.20;99.90;;;;;;4936727;29;20031;-82
2021/10/08 02:20:55;;;;;;;14.10;12.07;;;8.20;99.90;;;;;;4936944;29;20372;-82
2021/10/08 02:23:20;;;;;;;12.95;11.60;;;8.20;99.90;;;;;;4936794;29;20038;-84
2021/10/08 02:25:46;;;;;;;13.90;11.18;;;8.20;99.90;;;;;;4935802;29;20035;-84
2021/10/08 02:28:12;;;;;;;13.68;11.75;;;8.10;99.90;;;;;;4936720;29;20416;-83
2021/10/08 02:30:38;;;;;;;12.73;11.27;;;8.10;99.90;;;;;;4935899;29;20469;-80
2021/10/08 02:33:03;;;;;;;15.30;12.35;;;8.10;99.90;;;;;;4935669;29;20050;-82
2021/10/08 02:35:29;;;;;;;15.18;11.43;;;8.10;99.90;;;;;;4936182;29;20468;-82
2021/10/08 02:37:54;;;;;;;12.45;11.02;;;8.10;99.90;;;;;;4936509;29;20035;-82
2021/10/08 02:40:20;;;;;;;15.20;11.65;;;8.10;99.90;;;;;;4935760;29;20030;-81
2021/10/08 02:42:46;;;;;;;12.52;10.70;;;8.10;99.90;;;;;;4936220;29;20027;-82
2021/10/08 02:45:12;;;;;;;12.85;10.95;;;8.00;99.90;;;;;;4936331;29;20083;-77
2021/10/08 02:47:38;;;;;;;13.82;10.15;;;8.00;99.90;;;;;;4934825;29;20027;-79
2021/10/08 02:50:04;;;;;;;14.02;11.98;;;8.00;99.90;;;;;;4935036;29;20019;-77
2021/10/08 02:52:30;;;;;;;11.93;10.10;;;8.00;99.90;;;;;;4926072;29;20036;-80
2021/10/08 02:54:55;;;;;;;12.40;10.85;;;8.00;99.90;;;;;;4932498;29;20441;-78
2021/10/08 02:57:21;;;;;;;12.38;10.98;;;8.00;99.90;;;;;;4925298;29;20025;-79
2021/10/08 02:59:46;;;;;;;12.68;10.82;;;8.00;99.90;;;;;;4916889;29;20469;-79
2021/10/08 03:02:12;;;;;;;12.25;10.60;;;7.90;99.90;;;;;;4933460;29;20541;-77
2021/10/08 03:04:40;;;;;;;13.98;10.35;;;7.90;99.90;;;;;;4935750;29;20031;-79
2021/10/08 03:07:05;;;;;;;11.63;10.43;;;7.90;99.90;;;;;;4937198;29;20031;-80
2021/10/08 03:09:31;;;;;;;14.25;10.70;;;7.90;99.90;;;;;;4934962;29;20031;-82
2021/10/08 03:11:57;;;;;;;11.52;9.95;;;7.90;99.90;;;;;;4935540;29;20024;-79
2021/10/08 03:14:22;;;;;;;10.45;8.77;;;7.80;99.90;;;;;;4935621;29;20404;-82
2021/10/08 03:16:48;;;;;;;12.43;10.75;;;7.90;99.90;;;;;;4934866;29;20111;-81
2021/10/08 03:19:13;;;;;;;9.63;8.70;;;7.80;99.90;;;;;;4935386;29;20401;-81
2021/10/08 03:21:39;;;;;;;10.68;9.52;;;7.80;99.90;;;;;;4934627;29;20035;-81
2021/10/08 03:24:05;;;;;;;15.02;10.75;;;7.80;99.90;;;;;;4935573;29;20039;-82
2021/10/08 03:26:30;;;;;;;11.43;10.00;;;7.80;99.90;;;;;;4935267;29;20019;-81
2021/10/08 03:28:56;;;;;;;12.00;9.07;;;7.80;99.90;;;;;;4935318;29;20026;-82
2021/10/08 03:31:21;;;;;;;13.88;11.15;;;7.80;99.90;;;;;;4936653;29;20031;-81
2021/10/08 03:33:47;;;;;;;12.63;11.18;;;7.70;99.90;;;;;;4936189;29;20079;-79
2021/10/08 03:36:27;;;;;;;11.93;10.15;;;7.70;99.90;;;;;;4934760;29;20036;-82
2021/10/08 03:38:53;;;;;;;14.13;11.10;;;7.70;99.90;;;;;;4935401;29;20028;-80
2021/10/08 03:41:19;;;;;;;13.05;11.27;;;7.70;99.90;;;;;;4935932;29;20024;-80
2021/10/08 03:43:46;;;;;;;12.73;10.88;;;7.70;99.90;;;;;;4934486;29;20392;-80
2021/10/08 03:46:13;;;;;;;11.15;9.95;;;7.70;99.90;;;;;;4935240;29;20434;-80
2021/10/08 03:51:27;;;;;;;13.77;11.23;;;7.70;99.90;;;;;;4916733;29;20039;-79
2021/10/08 03:53:52;;;;;;;12.55;10.30;;;7.60;99.90;;;;;;4931648;29;20479;-77
2021/10/08 03:56:18;;;;;;;14.10;10.68;;;7.60;99.90;;;;;;4931752;29;20108;-79
2021/10/08 03:58:44;;;;;;;15.02;9.85;;;7.70;99.90;;;;;;4930679;29;20828;-80
2021/10/08 04:01:09;;;;;;;12.00;10.25;;;7.60;99.90;;;;;;4931589;29;20052;-79
2021/10/08 04:03:35;;;;;;;11.93;10.20;;;7.60;99.90;;;;;;4931205;29;20024;-81
2021/10/08 04:06:01;;;;;;;11.65;9.88;;;7.60;99.90;;;;;;4916350;29;20028;-82
2021/10/08 04:08:26;;;;;;;11.38;9.52;;;7.60;99.90;;;;;;4931322;29;20028;-79
2021/10/08 04:10:52;;;;;;;10.35;9.10;;;7.60;99.90;;;;;;4934137;29;20107;-81
2021/10/08 04:13:18;;;;;;;12.65;9.48;;;7.60;99.90;;;;;;4933980;29;20393;-81
2021/10/08 04:15:43;;;;;;;10.40;8.25;;;7.60;99.90;;;;;;4934289;29;20039;-81
2021/10/08 04:18:11;;;;;;;9.63;8.48;;;7.50;99.90;;;;;;4933671;29;20027;-81
2021/10/08 04:20:37;;;;;;;9.55;8.55;;;7.50;99.90;;;;;;4932912;29;20051;-81
2021/10/08 04:23:03;;;;;;;9.30;8.30;;;7.50;99.90;;;;;;4933964;29;20031;-82
2021/10/08 04:25:29;;;;;;;11.05;8.30;;;7.50;99.90;;;;;;4933700;29;20050;-83
2021/10/08 04:27:55;;;;;;;10.82;8.65;;;7.50;99.90;;;;;;4934474;29;20433;-83
2021/10/08 04:30:20;;;;;;;11.10;9.13;;;7.50;99.90;;;;;;4934441;29;20077;-82
2021/10/08 04:32:46;;;;;;;9.30;8.30;;;7.50;99.90;;;;;;4933195;29;20110;-80
2021/10/08 04:35:11;;;;;;;10.35;8.70;;;7.50;99.90;;;;;;4934558;29;20047;-78
2021/10/08 04:37:37;;;;;;;10.00;7.97;;;7.50;99.90;;;;;;4933955;29;20527;-82
2021/10/08 04:40:04;;;;;;;9.68;8.32;;;7.50;99.90;;;;;;4933024;29;20548;-82
2021/10/08 04:42:30;;;;;;;10.32;8.45;;;7.40;99.90;;;;;;4933982;29;20373;-82
2021/10/08 04:44:55;;;;;;;10.90;9.27;;;7.40;99.90;;;;;;4934346;29;20039;-81
2021/10/08 04:47:21;;;;;;;10.27;9.18;;;7.50;99.90;;;;;;4933438;29;20477;-83
2021/10/08 04:49:47;;;;;;;10.43;8.88;;;7.40;99.90;;;;;;4934801;29;20035;-84
2021/10/08 04:52:13;;;;;;;10.80;9.50;;;7.40;99.90;;;;;;4933930;29;20032;-84
2021/10/08 04:54:38;;;;;;;10.63;9.10;;;7.40;99.90;;;;;;4934340;29;20067;-83
2021/10/08 04:57:05;;;;;;;11.48;8.82;;;7.40;99.90;;;;;;4934200;29;20027;-83
2021/10/08 04:59:31;;;;;;;10.57;8.40;;;7.40;99.90;;;;;;4933732;29;20035;-83
2021/10/08 05:01:56;;;;;;;9.40;8.30;;;7.40;99.90;;;;;;4934643;29;20027;-84
2021/10/08 05:04:22;;;;;;;8.35;7.47;;;7.40;99.90;;;;;;4934013;29;20127;-81
2021/10/08 05:06:48;;;;;;;10.30;8.85;;;7.40;99.90;;;;;;4933855;29;20028;-83
2021/10/08 05:09:13;;;;;;;9.00;7.93;;;7.40;99.90;;;;;;4933424;29;20397;-79
2021/10/08 05:11:39;;;;;;;9.48;8.35;;;7.40;99.90;;;;;;4935204;29;20023;-83
2021/10/08 05:14:04;;;;;;;8.93;7.82;;;7.40;99.90;;;;;;4933180;29;20474;-80
2021/10/08 05:16:30;;;;;;;9.15;7.78;;;7.40;99.90;;;;;;4934846;29;20087;-80
2021/10/08 05:18:56;;;;;;;9.55;8.05;;;7.40;99.90;;;;;;4933732;29;20480;-83
2021/10/08 05:21:21;;;;;;;8.82;7.82;;;7.30;99.90;;;;;;4933148;29;20414;-82
2021/10/08 05:23:47;;;;;;;9.57;7.78;;;7.40;99.90;;;;;;4933807;29;20027;-83
2021/10/08 05:26:13;;;;;;;8.60;7.72;;;7.30;99.90;;;;;;4935298;29;20020;-80
2021/10/08 05:28:38;;;;;;;8.80;7.80;;;7.30;99.90;;;;;;4933867;29;20028;-81
2021/10/08 05:31:05;;;;;;;9.25;8.30;;;7.30;99.90;;;;;;4933727;29;20028;-83
2021/10/08 05:33:31;;;;;;;8.98;8.07;;;7.30;99.90;;;;;;4933362;29;20130;-79
2021/10/08 05:35:57;;;;;;;9.68;8.68;;;7.30;99.90;;;;;;4933073;29;20166;-82
2021/10/08 05:38:22;;;;;;;11.25;8.68;;;7.30;99.90;;;;;;4935131;29;20028;-78
2021/10/08 05:40:48;;;;;;;9.77;8.75;;;7.30;99.90;;;;;;4933676;29;20078;-81
2021/10/08 05:43:15;;;;;;;11.00;9.57;;;7.30;99.90;;;;;;4933638;29;20031;-83
2021/10/08 05:45:40;;;;;;;13.02;10.43;;;7.30;99.90;;;;;;4933609;29;20023;-84
2021/10/08 05:48:06;;;;;;;12.32;9.63;;;7.30;99.90;;;;;;4933829;29;20028;-85
2021/10/08 05:50:32;;;;;;;11.95;9.35;;;7.40;99.90;;;;;;4933552;29;20024;-85
2021/10/08 05:52:57;;;;;;;11.95;9.95;;;7.30;99.90;;;;;;4937255;29;20369;-85
2021/10/08 05:55:24;;;;;;;13.55;10.65;;;7.40;99.90;;;;;;4937404;29;20124;-83
2021/10/08 05:57:50;;;;;;;11.75;9.85;;;7.40;99.90;;;;;;4936372;29;20032;-85
2021/10/08 06:00:16;;;;;;;14.85;10.85;;;7.40;99.90;;;;;;4937444;29;20026;-84
2021/10/08 06:02:42;;;;;;;10.43;9.25;;;7.40;99.90;;;;;;4936699;29;20476;-83
2021/10/08 06:05:08;;;;;;;13.60;9.50;;;7.40;99.90;;;;;;4936227;29;20056;-82
2021/10/08 06:07:33;;;;;;;13.55;10.02;;;7.50;99.90;;;;;;4935383;29;20059;-82
2021/10/08 06:09:59;;;;;;;13.52;9.25;;;7.50;99.90;;;;;;4934003;29;20051;-81
2021/10/08 06:12:24;;;;;;;11.77;10.02;;;7.50;99.90;;;;;;4936091;29;20024;-78
2021/10/08 06:14:50;;;;;;;11.32;9.73;;;7.50;99.90;;;;;;4936746;29;20028;-83
2021/10/08 06:17:16;;;;;;;11.02;9.45;;;7.60;99.90;;;;;;4938232;29;20038;-83
2021/10/08 06:19:42;;;;;;;12.40;7.93;;;7.60;99.90;;;;;;4935420;29;20033;-82
2021/10/08 06:22:08;;;;;;;9.93;8.38;;;7.60;99.90;;;;;;4938106;29;20428;-81
2021/10/08 06:24:33;;;;;;;11.52;9.32;;;7.70;99.90;;;;;;4935403;29;20034;-81
2021/10/08 06:26:59;;;;;;;11.93;9.52;;;7.80;99.90;;;;;;4937702;29;20028;-83
2021/10/08 06:29:25;;;;;;;11.32;10.10;;;7.80;99.90;;;;;;4936421;29;20023;-78
2021/10/08 06:31:50;;;;;;;12.15;9.35;;;7.90;99.90;;;;;;4936155;29;20035;-79
2021/10/08 06:34:16;;;;;;;14.73;11.60;;;7.90;99.90;;;;;;4935159;29;20063;-79
2021/10/08 06:36:42;;;;;;;12.88;11.00;;;8.00;99.90;;;;;;4934771;29;20493;-82
2021/10/08 06:39:07;;;;;;;13.68;11.25;;;8.00;99.90;;;;;;4954060;28;20555;-83
2021/10/08 06:41:33;;;;;;;24.10;11.80;;;8.00;99.90;;;;;;4935772;29;20035;-81
2021/10/08 06:43:59;;;;;;;14.85;11.82;;;8.10;99.90;;;;;;4920767;29;20055;-78
2021/10/08 06:46:25;;;;;;;17.23;10.88;;;8.10;99.90;;;;;;4918644;29;20487;-79
2021/10/08 06:48:50;;;;;;;20.10;12.32;;;8.10;99.90;;;;;;4936294;29;20469;-80
2021/10/08 06:51:16;;;;;;;20.63;13.07;;;8.20;99.90;;;;;;4937461;29;20504;-82
2021/10/08 06:53:42;;;;;;;24.48;12.43;;;8.20;99.90;;;;;;4936312;29;20043;-77
2021/10/08 06:56:08;;;;;;;18.88;12.57;;;8.20;99.90;;;;;;4936439;29;20020;-79
2021/10/08 06:58:33;;;;;;;13.07;11.05;;;8.20;99.90;;;;;;4935837;29;20130;-80
2021/10/08 07:00:59;;;;;;;17.88;11.75;;;8.30;99.90;;;;;;4936121;29;20027;-80
2021/10/08 07:03:26;;;;;;;19.83;12.18;;;8.30;99.90;;;;;;4933257;29;20042;-79
2021/10/08 07:05:52;;;;;;;13.90;10.73;;;8.40;99.90;;;;;;4935913;29;20103;-80
2021/10/08 07:08:17;;;;;;;18.50;12.43;;;8.40;99.90;;;;;;4934167;29;20118;-78
2021/10/08 07:10:43;;;;;;;21.40;11.45;;;8.40;99.90;;;;;;4918628;29;20035;-78
2021/10/08 07:13:10;;;;;;;17.45;12.27;;;8.50;99.90;;;;;;4921030;29;20455;-81
2021/10/08 07:15:36;;;;;;;18.27;12.50;;;8.50;99.90;;;;;;4934068;29;20049;-81
2021/10/08 07:18:02;;;;;;;13.65;12.10;;;8.50;99.90;;;;;;4931796;29;20370;-79
2021/10/08 07:20:29;;;;;;;19.60;12.48;;;8.50;99.90;;;;;;4934167;29;20087;-79
2021/10/08 07:22:56;;;;;;;17.60;11.98;;;8.60;99.90;;;;;;4933354;29;20469;-79
2021/10/08 07:25:28;;;;;;;16.20;13.13;;;8.60;99.90;;;;;;4919718;29;20035;-81
2021/10/08 07:27:54;;;;;;;14.90;13.40;;;8.60;99.90;;;;;;4935269;29;20362;-80
2021/10/08 07:30:19;;;;;;;22.48;15.50;;;8.60;99.90;;;;;;4919688;29;20027;-81
2021/10/08 07:32:46;;;;;;;19.00;14.18;;;8.60;99.90;;;;;;4934911;29;20055;-79
2021/10/08 07:35:12;;;;;;;17.20;14.82;;;8.70;99.90;;;;;;4935057;29;20171;-80
2021/10/08 07:37:38;;;;;;;13.52;12.15;;;8.70;99.90;;;;;;4934807;29;20067;-80
2021/10/08 07:40:05;;;;;;;13.00;11.60;;;8.70;99.90;;;;;;4934443;29;20076;-81
2021/10/08 07:42:32;;;;;;;28.75;13.23;;;8.80;99.90;;;;;;4934486;29;20036;-82
2021/10/08 07:44:58;;;;;;;15.20;13.60;;;8.80;99.90;;;;;;4934617;29;20385;-81
2021/10/08 07:47:23;;;;;;;15.48;13.88;;;8.80;99.90;;;;;;4936280;29;20032;-81
2021/10/08 07:49:49;;;;;;;15.30;13.70;;;8.80;99.90;;;;;;4932720;29;20030;-83
2021/10/08 07:52:14;;;;;;;14.43;12.20;;;8.90;99.90;;;;;;4934670;29;20091;-81
2021/10/08 07:54:40;;;;;;;14.02;12.25;;;8.90;99.90;;;;;;4934631;29;20397;-81
2021/10/08 07:57:07;;;;;;;13.27;11.80;;;9.00;99.90;;;;;;4934542;29;20051;-82
2021/10/08 07:59:32;;;;;;;16.83;15.02;;;9.00;99.90;;;;;;4934618;29;20078;-81
2021/10/08 08:01:58;;;;;;;18.95;16.40;;;9.10;99.90;;;;;;4932509;29;20031;-76
2021/10/08 08:04:23;;;;;;;18.25;15.93;;;9.10;99.90;;;;;;4933234;29;20067;-75
2021/10/08 08:06:49;;;;;;;19.10;16.98;;;9.10;99.90;;;;;;4933135;29;20024;-81
2021/10/08 08:09:15;;;;;;;18.05;16.15;;;9.10;99.90;;;;;;4933598;29;20071;-78
2021/10/08 08:11:41;;;;;;;19.08;16.83;;;9.20;99.90;;;;;;4931807;29;20023;-76
2021/10/08 08:14:08;;;;;;;16.08;14.38;;;9.30;99.90;;;;;;4928746;28;20040;-79
2021/10/08 08:16:33;;;;;;;16.15;14.00;;;9.40;99.90;;;;;;4933603;28;20031;-86
2021/10/08 08:18:59;;;;;;;17.45;13.68;;;9.40;99.90;;;;;;4928924;29;20024;-84
2021/10/08 08:21:24;;;;;;;17.45;13.38;;;9.50;99.90;;;;;;4944325;28;20490;-77
2021/10/08 08:23:50;;;;;;;15.70;13.75;;;9.60;99.90;;;;;;4933592;29;20075;-85
2021/10/08 08:26:16;;;;;;;16.40;14.60;;;9.60;99.90;;;;;;4933698;29;20031;-85
2021/10/08 08:28:42;;;;;;;15.75;13.73;;;9.70;99.90;;;;;;4932101;29;20035;-78
2021/10/08 08:31:07;;;;;;;17.25;15.38;;;9.80;99.90;;;;;;4934077;29;20055;-81
2021/10/08 08:33:35;;;;;;;18.27;15.50;;;9.80;99.90;;;;;;4948643;28;20062;-81
2021/10/08 08:36:04;;;;;;;20.85;18.52;;;9.80;99.90;;;;;;4932673;29;20027;-80
2021/10/08 08:38:30;;;;;;;20.25;16.65;;;9.90;99.90;;;;;;4925335;29;20024;-80
2021/10/08 08:40:57;;;;;;;17.38;15.52;;;9.90;99.90;;;;;;4922602;29;20020;-75
2021/10/08 08:43:23;;;;;;;20.13;17.10;;;9.90;99.90;;;;;;4932751;29;20043;-84
2021/10/08 08:45:49;;;;;;;20.23;16.95;;;9.90;99.90;;;;;;4932722;29;20020;-83
2021/10/08 08:48:14;;;;;;;16.80;14.52;;;9.90;99.90;;;;;;4931310;29;20027;-81
2021/10/08 08:50:44;;;;;;;18.83;16.77;;;10.00;99.90;;;;;;4932156;29;20024;-84
2021/10/08 08:53:11;;;;;;;19.02;16.02;;;10.10;99.90;;;;;;4932656;29;20047;-75
2021/10/08 08:55:37;;;;;;;19.55;16.67;;;10.10;99.90;;;;;;4948182;28;20031;-79
2021/10/08 08:58:04;;;;;;;22.88;16.88;;;10.20;99.90;;;;;;4934166;29;20032;-83
2021/10/08 09:00:30;;;;;;;23.35;18.45;;;10.20;99.90;;;;;;4930448;29;20118;-79
2021/10/08 09:03:01;;;;;;;22.35;18.33;;;10.20;99.90;;;;;;4928833;29;20188;-77
2021/10/08 09:05:35;;;;;;;23.70;17.83;;;10.20;99.90;;;;;;4934746;29;20050;-80
2021/10/08 09:08:08;;;;;;;23.08;18.13;;;10.20;99.90;;;;;;4938452;29;20030;-83
2021/10/08 09:10:36;;;;;;;20.73;16.88;;;10.10;99.90;;;;;;4932721;29;20436;-78
2021/10/08 09:13:03;;;;;;;26.23;21.27;;;10.20;99.90;;;;;;4931083;29;20498;-81
2021/10/08 09:15:43;;;;;;;27.67;22.85;;;10.10;99.90;;;;;;4930888;29;20028;-76
2021/10/08 09:18:10;;;;;;;27.17;22.10;;;10.10;99.90;;;;;;4933718;29;20027;-82
2021/10/08 09:20:38;;;;;;;24.88;20.63;;;10.10;99.90;;;;;;4932244;29;20042;-74
2021/10/08 09:23:05;;;;;;;21.77;19.00;;;10.20;99.90;;;;;;4933052;29;20493;-74
2021/10/08 09:25:34;;;;;;;23.83;18.83;;;10.10;99.90;;;;;;4933831;29;20114;-78
2021/10/08 09:28:01;;;;;;;22.02;18.02;;;10.10;99.90;;;;;;4936951;29;20026;-82
2021/10/08 09:30:33;;;;;;;22.45;18.60;;;10.20;99.90;;;;;;4938485;29;20112;-74
2021/10/08 09:32:59;;;;;;;21.95;16.45;;;10.20;99.90;;;;;;4935735;29;20121;-79
2021/10/08 09:35:26;;;;;;;24.20;18.33;;;10.20;99.90;;;;;;4935616;29;20039;-78
2021/10/08 09:38:02;;;;;;;22.05;17.58;;;10.30;99.90;;;;;;4938432;29;20023;-78
2021/10/08 09:40:39;;;;;;;22.77;17.05;;;10.30;99.90;;;;;;4937475;29;20422;-79
2021/10/08 09:43:11;;;;;;;25.95;20.27;;;10.30;99.90;;;;;;4934796;29;20023;-75
2021/10/08 09:45:42;;;;;;;;;;;10.40;99.90;;;;;;4936401;29;20123;-80
2021/10/08 09:48:11;;;;;;;22.70;16.83;;;10.40;99.90;;;;;;4936378;29;19910;-78
2021/10/08 09:50:38;;;;;;;28.80;20.13;;;10.50;99.90;;;;;;4950725;29;20115;-76
2021/10/08 09:53:15;;;;;;;22.58;18.23;;;10.50;99.90;;;;;;4938401;29;20048;-76
2021/10/08 09:55:42;;;;;;;26.40;20.05;;;10.50;99.90;;;;;;4936518;29;20131;-76
2021/10/08 09:58:09;;;;;;;26.67;20.40;;;10.60;99.90;;;;;;4935172;29;20034;-77
2021/10/08 10:00:46;;;;;;;31.50;22.27;;;10.70;99.90;;;;;;4935883;29;20130;-76
2021/10/08 10:03:14;;;;;;;29.17;21.90;;;10.70;99.90;;;;;;4936697;29;20429;-77
2021/10/08 10:05:40;;;;;;;28.90;21.48;;;10.80;99.90;;;;;;4936747;29;20103;-75
2021/10/08 10:08:06;;;;;;;30.30;22.35;;;10.80;99.90;;;;;;4941849;29;20207;-76
2021/10/08 10:10:34;;;;;;;36.47;26.63;;;10.90;99.90;;;;;;4939203;29;20059;-75
2021/10/08 10:13:01;;;;;;;35.05;24.17;;;10.90;99.90;;;;;;4937366;29;20048;-77
2021/10/08 10:15:27;;;;;;;36.63;26.35;;;11.00;99.90;;;;;;4936340;29;20055;-77
2021/10/08 10:17:54;;;;;;;32.80;25.17;;;11.00;99.90;;;;;;4935865;29;20118;-77
2021/10/08 10:20:19;;;;;;;33.67;24.83;;;11.10;99.90;;;;;;4937200;29;20031;-76
2021/10/08 10:22:48;;;;;;;31.65;22.60;;;11.20;99.90;;;;;;4937129;29;20551;-80
2021/10/08 10:25:14;;;;;;;31.17;21.23;;;11.20;99.90;;;;;;4935797;29;20063;-77
2021/10/08 10:27:42;;;;;;;31.40;22.75;;;11.20;99.90;;;;;;4935149;29;20039;-76
2021/10/08 10:30:09;;;;;;;30.42;23.77;;;11.30;99.90;;;;;;4934320;29;20043;-77
2021/10/08 10:32:35;;;;;;;32.95;23.20;;;11.40;99.90;;;;;;4935183;29;20035;-78
2021/10/08 10:35:03;;;;;;;29.90;23.40;;;11.40;99.90;;;;;;4936336;29;20024;-78
2021/10/08 10:37:41;;;;;;;31.27;23.88;;;11.50;99.90;;;;;;4934368;29;20020;-77
2021/10/08 10:40:15;;;;;;;29.63;22.65;;;11.50;99.90;;;;;;4935327;29;20026;-78
2021/10/08 10:42:41;;;;;;;30.25;23.10;;;11.60;99.90;;;;;;4934353;29;20031;-77
2021/10/08 10:45:19;;;;;;;30.17;22.30;;;11.70;99.90;;;;;;4935473;29;20082;-77
2021/10/08 10:47:47;;;;;;;28.00;21.67;;;11.70;99.90;;;;;;4934822;29;20135;-77
2021/10/08 10:50:26;;;;;;;33.85;25.25;;;11.80;99.90;;;;;;4936268;29;20493;-76
2021/10/08 10:52:55;;;;;;;30.73;23.77;;;11.80;99.90;;;;;;4936524;29;20035;-77
2021/10/08 10:55:22;;;;;;;29.95;23.10;;;11.90;99.90;;;;;;4936173;29;20027;-77
2021/10/08 10:57:56;;;;;;;28.30;20.95;;;11.90;99.90;;;;;;4934100;29;20059;-77
2021/10/08 11:00:38;;;;;;;27.38;20.38;;;12.00;99.90;;;;;;4935701;29;20034;-78
2021/10/08 11:03:07;;;;;;;31.55;23.38;;;12.00;99.90;;;;;;4916804;29;20371;-77
2021/10/08 11:05:37;;;;;;;31.75;22.90;;;12.10;99.90;;;;;;4916572;29;20032;-77
2021/10/08 11:08:08;;;;;;;28.35;20.83;;;12.10;99.90;;;;;;4941925;28;20468;-78
2021/10/08 11:10:36;;;;;;;29.52;21.75;;;12.20;99.90;;;;;;4939398;29;20082;-77
2021/10/08 11:13:27;;;;;;;29.50;21.42;;;12.20;99.90;;;;;;4934709;29;20747;-76
2021/10/08 11:16:04;;;;;;;26.63;19.75;;;12.20;99.90;;;;;;4934560;29;20031;-75
2021/10/08 11:18:44;;;;;;;27.58;21.15;;;12.30;99.90;;;;;;4943162;29;20031;-76
2021/10/08 11:21:15;;;;;;;24.40;19.13;;;12.40;99.90;;;;;;4931217;29;20048;-76
2021/10/08 11:23:41;;;;;;;22.35;18.92;;;12.40;99.90;;;;;;4933751;29;20079;-77
2021/10/08 11:26:10;;;;;;;24.13;18.08;;;12.50;99.90;;;;;;4930964;29;20036;-80
2021/10/08 11:28:44;;;;;;;20.23;16.88;;;12.60;99.90;;;;;;4929611;29;20032;-78
2021/10/08 11:31:14;;;;;;;21.65;17.42;;;12.60;99.90;;;;;;4930192;29;20034;-77
2021/10/08 11:33:58;;;;;;;19.35;15.85;;;12.60;99.90;;;;;;4929714;29;20040;-75
2021/10/08 11:36:29;;;;;;;19.90;16.05;;;12.70;99.90;;;;;;4931507;29;20027;-79
2021/10/08 11:39:12;;;;;;;17.20;13.77;;;12.80;99.90;;;;;;4931533;29;20031;-78
2021/10/08 11:41:41;;;;;;;15.45;11.63;;;12.80;99.90;;;;;;4930671;29;20499;-82
2021/10/08 11:44:23;;;;;;;13.65;12.02;;;12.80;99.90;;;;;;4930889;29;20046;-81
2021/10/08 11:47:09;;;;;;;12.90;10.60;;;12.80;99.90;;;;;;4929821;29;20020;-77
2021/10/08 11:52:01;;;;;;;12.50;10.20;;;12.90;99.90;;;;;;4931856;29;20039;-78
2021/10/08 11:54:27;;;;;;;12.15;9.65;;;12.90;99.90;;;;;;4931557;29;20056;-81
2021/10/08 11:57:04;;;;;;;10.85;9.73;;;13.00;99.90;;;;;;4930894;29;20019;-76
2021/10/08 11:59:31;;;;;;;10.60;8.75;;;13.00;99.90;;;;;;4931096;29;20043;-75
2021/10/08 12:02:14;;;;;;;8.40;7.50;;;13.00;99.90;;;;;;4930693;29;20031;-75
2021/10/08 12:04:55;;;;;;;9.82;7.82;;;13.10;99.90;;;;;;4931775;29;20109;-80
2021/10/08 12:07:21;;;;;;;7.13;6.43;;;13.20;99.90;;;;;;4928751;29;20074;-82
2021/10/08 12:09:46;;;;;;;8.13;6.78;;;13.20;99.90;;;;;;4932925;29;20476;-83
2021/10/08 12:12:14;;;;;;;8.82;6.22;;;13.20;99.90;;;;;;4925999;29;20123;-80
2021/10/08 12:14:47;;;;;;;7.50;6.40;;;13.30;99.90;;;;;;4927551;29;20040;-76
2021/10/08 12:17:13;;;;;;;9.38;6.97;;;13.40;99.90;;;;;;4929424;29;20374;-81
2021/10/08 12:19:39;;;;;;;7.72;6.57;;;13.50;99.90;;;;;;4929374;29;20083;-77
2021/10/08 12:22:04;;;;;;;6.05;5.35;;;13.50;99.90;;;;;;4929617;29;20027;-78
2021/10/08 12:24:32;;;;;;;10.85;4.88;;;13.50;99.90;;;;;;4930076;29;20089;-82
2021/10/08 12:27:01;;;;;;;4.63;4.13;;;13.50;99.90;;;;;;4929991;29;20034;-80
2021/10/08 12:29:50;;;;;;;4.82;4.32;;;13.60;99.90;;;;;;4928263;29;20027;-77
2021/10/08 12:32:17;;;;;;;6.25;4.60;;;13.80;99.90;;;;;;4928590;29;20024;-82
2021/10/08 12:34:47;;;;;;;4.80;3.97;;;13.90;99.90;;;;;;4939800;28;20400;-80
2021/10/08 12:37:17;;;;;;;4.32;3.60;;;13.90;99.90;;;;;;4927131;29;20024;-80
2021/10/08 12:40:08;;;;;;;4.03;3.58;;;13.90;99.90;;;;;;4927482;29;20126;-78
2021/10/08 12:42:37;;;;;;;4.30;3.63;;;13.90;99.90;;;;;;4926307;29;20024;-78
2021/10/08 12:45:03;;;;;;;3.50;3.20;;;13.90;99.90;;;;;;4928190;29;20115;-77